createdAt,value
2022-10-30T00:01:02.601Z,15.08
2022-10-30T00:03:32.609Z,15.07
2022-10-30T00:06:00.882Z,15.07
2022-10-30T00:08:29.189Z,15.03
2022-10-30T00:10:57.434Z,15.04
2022-10-30T00:13:25.686Z,15.02
2022-10-30T00:15:55.112Z,15.01
2022-10-30T00:18:23.402Z,14.97
2022-10-30T00:20:53.092Z,14.98
2022-10-30T00:23:21.443Z,14.96
2022-10-30T00:25:49.702Z,14.94
2022-10-30T00:28:17.926Z,14.92
2022-10-30T00:30:46.169Z,14.91
2022-10-30T00:33:14.451Z,14.90
2022-10-30T00:35:49.968Z,14.88
2022-10-30T00:38:19.609Z,14.87
2022-10-30T00:40:47.862Z,14.87
2022-10-30T00:43:35.722Z,14.84
2022-10-30T00:46:16.710Z,14.83
2022-10-30T00:48:49.602Z,14.83
2022-10-30T00:51:18.751Z,14.82
2022-10-30T00:53:49.293Z,14.82
2022-10-30T00:56:21.975Z,14.82
2022-10-30T00:58:55.273Z,14.80
2022-10-30T01:01:27.807Z,14.78
2022-10-30T01:03:59.549Z,14.76
2022-10-30T01:06:29.278Z,14.76
2022-10-30T01:09:00.284Z,14.75
2022-10-30T01:11:28.832Z,14.74
2022-10-30T01:14:01.120Z,14.71
2022-10-30T01:16:57.272Z,14.70
2022-10-30T01:19:33.947Z,14.69
2022-10-30T01:22:29.085Z,14.66
2022-10-30T01:25:12.259Z,14.63
2022-10-30T01:27:52.776Z,14.63
2022-10-30T01:30:37.376Z,14.61
2022-10-30T01:33:23.995Z,14.57
2022-10-30T01:36:03.090Z,14.58
2022-10-30T01:38:37.476Z,14.56
2022-10-30T01:41:07.200Z,14.55
2022-10-30T01:43:36.599Z,14.55
2022-10-30T01:46:33.016Z,14.52
2022-10-30T01:49:18.572Z,14.49
2022-10-30T01:52:02.400Z,14.47
2022-10-30T01:54:40.149Z,14.48
2022-10-30T01:57:19.447Z,14.45
2022-10-30T01:59:54.468Z,14.43
2022-10-30T02:02:23.854Z,14.41
2022-10-30T02:04:52.836Z,14.41
2022-10-30T02:07:21.280Z,14.41
2022-10-30T02:09:52.270Z,14.39
2022-10-30T02:12:23.341Z,14.37
2022-10-30T02:14:55.827Z,14.34
2022-10-30T02:17:24.669Z,14.35
2022-10-30T02:19:52.896Z,14.33
2022-10-30T02:22:22.909Z,14.32
2022-10-30T02:24:51.216Z,14.30
2022-10-30T02:27:19.501Z,14.30
2022-10-30T02:29:49.283Z,14.27
2022-10-30T02:32:17.575Z,14.26
2022-10-30T02:34:45.818Z,14.26
2022-10-30T02:37:14.062Z,14.25
2022-10-30T02:39:43.707Z,14.24
2022-10-30T02:42:12.132Z,14.24
2022-10-30T02:44:40.362Z,14.23
2022-10-30T02:47:08.636Z,14.21
2022-10-30T02:49:36.972Z,14.23
2022-10-30T02:52:07.810Z,14.21
2022-10-30T02:54:36.104Z,14.21
2022-10-30T02:57:05.939Z,14.19
2022-10-30T02:59:34.148Z,14.19
2022-10-30T03:02:02.487Z,14.19
2022-10-30T03:04:30.782Z,14.19
2022-10-30T03:06:59.047Z,14.18
2022-10-30T03:09:27.287Z,14.19
2022-10-30T03:11:55.547Z,14.18
2022-10-30T03:14:25.192Z,14.17
2022-10-30T03:16:53.592Z,14.17
2022-10-30T03:19:22.176Z,14.17
2022-10-30T03:21:50.422Z,14.16
2022-10-30T03:24:18.652Z,14.16
2022-10-30T03:26:47.908Z,14.14
2022-10-30T03:29:16.116Z,14.17
2022-10-30T03:31:45.754Z,14.15
2022-10-30T03:34:13.952Z,14.13
2022-10-30T03:36:42.160Z,14.14
2022-10-30T03:39:10.650Z,14.13
2022-10-30T03:41:38.884Z,14.11
2022-10-30T03:44:07.138Z,14.10
2022-10-30T03:46:35.888Z,14.08
2022-10-30T03:49:05.477Z,14.05
2022-10-30T03:51:33.742Z,14.04
2022-10-30T03:54:01.951Z,14.04
2022-10-30T03:56:30.217Z,14.02
2022-10-30T03:58:58.432Z,14.02
2022-10-30T04:01:26.830Z,14.00
2022-10-30T04:03:55.278Z,13.97
2022-10-30T04:06:24.825Z,13.96
2022-10-30T04:08:55.514Z,13.94
2022-10-30T04:11:23.813Z,13.90
2022-10-30T04:13:52.040Z,13.89
2022-10-30T04:16:20.252Z,13.89
2022-10-30T04:18:48.462Z,13.88
2022-10-30T04:21:16.661Z,13.86
2022-10-30T04:23:46.237Z,13.83
2022-10-30T04:26:15.135Z,13.81
2022-10-30T04:28:43.339Z,13.80
2022-10-30T04:31:11.600Z,13.77
2022-10-30T04:33:39.827Z,13.76
2022-10-30T04:36:09.496Z,13.73
2022-10-30T04:38:37.760Z,13.71
2022-10-30T04:41:07.422Z,13.69
2022-10-30T04:43:35.678Z,13.66
2022-10-30T04:46:06.845Z,13.63
2022-10-30T04:48:36.242Z,13.61
2022-10-30T04:51:04.647Z,13.59
2022-10-30T04:53:32.887Z,13.56
2022-10-30T04:56:01.089Z,13.55
2022-10-30T04:58:30.768Z,13.52
2022-10-30T05:01:03.339Z,13.50
2022-10-30T05:03:32.182Z,13.48
2022-10-30T05:06:04.057Z,13.46
2022-10-30T05:08:32.781Z,13.44
2022-10-30T05:11:01.399Z,13.42
2022-10-30T05:13:30.985Z,13.40
2022-10-30T05:15:59.188Z,13.36
2022-10-30T05:18:27.425Z,13.35
2022-10-30T05:20:55.640Z,13.33
2022-10-30T05:23:24.031Z,13.31
2022-10-30T05:25:52.320Z,13.29
2022-10-30T05:28:20.601Z,13.27
2022-10-30T05:30:54.729Z,13.25
2022-10-30T05:33:23.673Z,13.24
2022-10-30T05:35:52.025Z,13.22
2022-10-30T05:38:20.263Z,13.20
2022-10-30T05:40:48.532Z,13.17
2022-10-30T05:43:16.741Z,13.17
2022-10-30T05:45:45.017Z,13.15
2022-10-30T05:48:14.577Z,13.12
2022-10-30T05:50:43.014Z,13.10
2022-10-30T05:53:11.783Z,13.08
2022-10-30T05:55:40.016Z,13.08
2022-10-30T05:58:08.622Z,13.05
2022-10-30T06:00:39.222Z,13.03
2022-10-30T06:03:11.195Z,13.01
2022-10-30T06:05:41.317Z,12.98
2022-10-30T06:08:09.800Z,12.98
2022-10-30T06:10:38.138Z,12.96
2022-10-30T06:13:08.305Z,12.91
2022-10-30T06:15:36.510Z,12.91
2022-10-30T06:18:05.067Z,12.92
2022-10-30T06:20:33.686Z,12.90
2022-10-30T06:23:06.126Z,12.90
2022-10-30T06:25:40.807Z,12.89
2022-10-30T06:28:10.795Z,12.90
2022-10-30T06:30:39.054Z,12.90
2022-10-30T06:33:08.223Z,12.88
2022-10-30T06:35:36.530Z,12.90
2022-10-30T06:38:06.095Z,12.90
2022-10-30T06:40:34.335Z,12.92
2022-10-30T06:43:02.956Z,12.94
2022-10-30T06:45:31.361Z,12.98
2022-10-30T06:48:01.766Z,12.99
2022-10-30T06:50:30.572Z,13.02
2022-10-30T06:52:58.806Z,13.07
2022-10-30T06:55:28.478Z,13.11
2022-10-30T06:57:58.279Z,13.18
2022-10-30T07:00:26.805Z,13.26
2022-10-30T07:03:00.257Z,13.35
2022-10-30T07:05:29.070Z,13.46
2022-10-30T07:07:58.748Z,13.57
2022-10-30T07:10:28.357Z,13.71
2022-10-30T07:12:58.826Z,13.86
2022-10-30T07:15:28.225Z,14.01
2022-10-30T07:17:58.659Z,14.14
2022-10-30T07:20:29.040Z,14.28
2022-10-30T07:22:57.409Z,14.41
2022-10-30T07:25:27.427Z,14.57
2022-10-30T07:27:58.290Z,14.71
2022-10-30T07:30:28.600Z,14.87
2022-10-30T07:33:02.432Z,14.99
2022-10-30T07:35:31.815Z,15.12
2022-10-30T07:38:04.436Z,15.25
2022-10-30T07:40:34.754Z,15.40
2022-10-30T07:43:05.302Z,15.56
2022-10-30T07:45:34.586Z,15.72
2022-10-30T07:48:03.276Z,15.90
2022-10-30T07:50:31.864Z,16.05
2022-10-30T07:53:00.314Z,16.23
2022-10-30T07:55:28.536Z,16.39
2022-10-30T07:57:58.468Z,16.54
2022-10-30T08:00:27.005Z,16.71
2022-10-30T08:02:58.638Z,16.86
2022-10-30T08:05:28.962Z,16.99
2022-10-30T08:07:58.903Z,17.14
2022-10-30T08:10:27.554Z,17.23
2022-10-30T08:12:57.155Z,17.34
2022-10-30T08:15:25.602Z,17.46
2022-10-30T08:17:54.467Z,17.57
2022-10-30T08:20:24.684Z,17.67
2022-10-30T08:22:54.931Z,17.75
2022-10-30T08:25:26.391Z,17.84
2022-10-30T08:27:59.396Z,17.91
2022-10-30T08:30:30.212Z,18.04
2022-10-30T08:33:00.056Z,18.13
2022-10-30T08:35:28.853Z,18.24
2022-10-30T08:37:57.853Z,18.36
2022-10-30T08:40:27.715Z,18.45
2022-10-30T08:42:59.044Z,18.53
2022-10-30T08:45:30.883Z,18.67
2022-10-30T08:48:01.327Z,18.78
2022-10-30T08:50:30.310Z,18.89
2022-10-30T08:53:03.152Z,19.01
2022-10-30T08:55:32.094Z,19.14
2022-10-30T08:58:02.263Z,19.28
2022-10-30T09:00:30.984Z,19.43
2022-10-30T09:02:59.636Z,19.55
2022-10-30T09:05:28.325Z,19.70
2022-10-30T09:08:01.500Z,19.80
2022-10-30T09:10:31.901Z,19.92
2022-10-30T09:13:03.263Z,20.03
2022-10-30T09:15:31.503Z,20.15
2022-10-30T09:18:03.007Z,20.25
2022-10-30T09:20:32.496Z,20.37
2022-10-30T09:23:01.182Z,20.47
2022-10-30T09:25:29.755Z,20.57
2022-10-30T09:27:58.121Z,20.66
2022-10-30T09:30:28.205Z,20.72
2022-10-30T09:32:58.226Z,20.78
2022-10-30T09:35:27.289Z,20.83
2022-10-30T09:37:55.860Z,20.92
2022-10-30T09:40:33.423Z,21.00
2022-10-30T09:43:11.249Z,21.04
2022-10-30T09:46:17.171Z,21.11
2022-10-30T09:49:24.273Z,21.18
2022-10-30T09:52:27.400Z,21.28
2022-10-30T09:55:15.222Z,21.36
2022-10-30T09:57:55.510Z,21.44
2022-10-30T10:00:27.587Z,21.51
2022-10-30T10:03:19.283Z,21.59
2022-10-30T10:05:53.303Z,21.70
2022-10-30T10:08:28.294Z,21.83
2022-10-30T10:11:00.893Z,21.98
2022-10-30T10:13:37.395Z,22.13
2022-10-30T10:16:14.975Z,22.29
2022-10-30T10:18:48.539Z,22.45
2022-10-30T10:21:27.335Z,22.62
2022-10-30T10:23:58.763Z,22.80
2022-10-30T10:26:33.290Z,22.96
2022-10-30T10:29:35.387Z,23.13
2022-10-30T10:32:32.361Z,23.32
2022-10-30T10:35:23.793Z,23.47
2022-10-30T10:38:01.046Z,23.60
2022-10-30T10:40:43.280Z,23.73
2022-10-30T10:43:26.034Z,23.86
2022-10-30T10:46:04.748Z,24.00
2022-10-30T10:49:04.336Z,24.13
2022-10-30T10:51:39.702Z,24.22
2022-10-30T10:54:15.531Z,24.31
2022-10-30T10:56:48.793Z,24.43
2022-10-30T10:59:21.527Z,24.52
2022-10-30T11:01:57.553Z,24.61
2022-10-30T11:04:33.823Z,24.71
2022-10-30T11:07:16.920Z,24.80
2022-10-30T11:09:45.892Z,24.89
2022-10-30T11:12:14.149Z,24.98
2022-10-30T11:14:42.861Z,25.07
2022-10-30T11:17:20.784Z,25.10
2022-10-30T11:19:52.946Z,25.16
2022-10-30T11:22:30.031Z,25.19
2022-10-30T11:25:10.925Z,25.23
2022-10-30T11:27:39.381Z,25.26
2022-10-30T11:30:19.999Z,25.30
2022-10-30T11:32:48.352Z,25.34
2022-10-30T11:35:19.192Z,25.36
2022-10-30T11:37:51.396Z,25.35
2022-10-30T11:40:23.068Z,25.33
2022-10-30T11:42:58.097Z,25.32
2022-10-30T11:45:29.667Z,25.30
2022-10-30T11:48:02.614Z,25.27
2022-10-30T11:50:33.728Z,25.22
2022-10-30T11:53:12.259Z,25.16
2022-10-30T11:55:43.156Z,25.11
2022-10-30T11:58:27.233Z,25.05
2022-10-30T12:01:08.294Z,25.01
2022-10-30T12:03:39.132Z,24.99
2022-10-30T12:06:15.089Z,24.93
2022-10-30T12:09:01.241Z,24.93
2022-10-30T12:11:31.800Z,24.91
2022-10-30T12:14:00.691Z,24.90
2022-10-30T12:16:29.722Z,24.92
2022-10-30T12:19:04.110Z,24.93
2022-10-30T12:21:38.135Z,24.94
2022-10-30T12:24:18.955Z,24.95
2022-10-30T12:26:51.194Z,24.99
2022-10-30T12:29:24.315Z,25.06
2022-10-30T12:31:59.435Z,25.12
2022-10-30T12:34:43.285Z,25.22
2022-10-30T12:37:18.555Z,25.29
2022-10-30T12:39:57.859Z,25.39
2022-10-30T12:42:27.227Z,25.48
2022-10-30T12:45:09.020Z,25.57
2022-10-30T12:47:44.773Z,25.69
2022-10-30T12:50:21.873Z,25.79
2022-10-30T12:52:58.685Z,25.88
2022-10-30T12:55:35.246Z,25.96
2022-10-30T12:58:12.144Z,26.01
2022-10-30T13:00:47.237Z,26.04
2022-10-30T13:03:27.624Z,26.05
2022-10-30T13:05:59.290Z,26.03
2022-10-30T13:08:34.179Z,26.00
2022-10-30T13:11:12.702Z,25.96
2022-10-30T13:13:46.497Z,25.92
2022-10-30T13:16:18.859Z,25.86
2022-10-30T13:18:47.242Z,25.79
2022-10-30T13:21:23.783Z,25.69
2022-10-30T13:23:57.175Z,25.60
2022-10-30T13:26:38.228Z,25.49
2022-10-30T13:29:20.451Z,25.41
2022-10-30T13:32:14.484Z,25.29
2022-10-30T13:34:53.776Z,25.19
2022-10-30T13:37:30.349Z,25.10
2022-10-30T13:40:14.763Z,24.98
2022-10-30T13:42:59.658Z,24.90
2022-10-30T13:46:11.769Z,24.77
2022-10-30T13:48:59.748Z,24.68
2022-10-30T13:51:38.730Z,24.59
2022-10-30T13:54:18.530Z,24.52
2022-10-30T13:56:49.479Z,24.45
2022-10-30T13:59:48.138Z,24.33
2022-10-30T14:02:30.235Z,24.27
2022-10-30T14:05:05.721Z,24.21
2022-10-30T14:07:42.943Z,24.14
2022-10-30T14:10:17.251Z,24.05
2022-10-30T14:12:54.032Z,24.02
2022-10-30T14:15:33.910Z,23.96
2022-10-30T14:18:46.529Z,23.88
2022-10-30T14:21:41.152Z,23.81
2022-10-30T14:24:16.384Z,23.74
2022-10-30T14:26:52.886Z,23.69
2022-10-30T14:29:48.451Z,23.61
2022-10-30T14:32:50.004Z,23.55
2022-10-30T14:35:40.469Z,23.48
2022-10-30T14:38:28.896Z,23.41
2022-10-30T14:41:45.958Z,23.31
2022-10-30T14:44:51.216Z,23.19
2022-10-30T14:47:40.409Z,23.11
2022-10-30T14:50:23.675Z,23.01
2022-10-30T14:53:11.628Z,22.95
2022-10-30T14:55:54.899Z,22.88
2022-10-30T14:58:26.964Z,22.83
2022-10-30T15:01:27.186Z,22.74
2022-10-30T15:04:15.688Z,22.67
2022-10-30T15:07:06.967Z,22.59
2022-10-30T15:09:48.630Z,22.54
2022-10-30T15:12:51.302Z,22.44
2022-10-30T15:15:20.675Z,22.39
2022-10-30T15:17:52.019Z,22.34
2022-10-30T15:20:26.592Z,22.27
2022-10-30T15:22:58.986Z,22.24
2022-10-30T15:25:34.826Z,22.17
2022-10-30T15:28:03.579Z,22.12
2022-10-30T15:30:32.006Z,22.07
2022-10-30T15:33:00.772Z,22.01
2022-10-30T15:35:31.313Z,21.97
2022-10-30T15:38:02.309Z,21.91
2022-10-30T15:40:31.896Z,21.87
2022-10-30T15:43:02.908Z,21.81
2022-10-30T15:45:35.643Z,21.75
2022-10-30T15:48:09.639Z,21.70
2022-10-30T15:50:45.070Z,21.66
2022-10-30T15:53:20.932Z,21.61
2022-10-30T15:55:50.651Z,21.56
2022-10-30T15:58:23.953Z,21.50
2022-10-30T16:01:00.301Z,21.45
2022-10-30T16:03:29.292Z,21.41
2022-10-30T16:06:18.924Z,21.33
2022-10-30T16:08:49.000Z,21.28
2022-10-30T16:11:17.792Z,21.23
2022-10-30T16:13:46.148Z,21.15
2022-10-30T16:16:21.814Z,21.09
2022-10-30T16:18:50.588Z,21.05
2022-10-30T16:21:24.676Z,20.99
2022-10-30T16:23:56.032Z,20.94
2022-10-30T16:26:32.645Z,20.87
2022-10-30T16:29:04.109Z,20.82
2022-10-30T16:31:37.252Z,20.77
2022-10-30T16:34:12.341Z,20.72
2022-10-30T16:36:43.113Z,20.65
2022-10-30T16:39:16.756Z,20.60
2022-10-30T16:41:45.623Z,20.55
2022-10-30T16:44:21.275Z,20.47
2022-10-30T16:46:52.653Z,20.42
2022-10-30T16:49:24.311Z,20.37
2022-10-30T16:51:59.539Z,20.30
2022-10-30T16:54:34.390Z,20.23
2022-10-30T16:57:05.182Z,20.17
2022-10-30T16:59:37.274Z,20.10
2022-10-30T17:02:16.243Z,20.04
2022-10-30T17:04:51.306Z,19.99
2022-10-30T17:07:26.682Z,19.94
2022-10-30T17:09:56.968Z,19.89
2022-10-30T17:12:26.947Z,19.85
2022-10-30T17:14:57.448Z,19.80
2022-10-30T17:17:32.915Z,19.75
2022-10-30T17:20:13.136Z,19.69
2022-10-30T17:22:43.111Z,19.63
2022-10-30T17:25:30.141Z,19.55
2022-10-30T17:27:58.787Z,19.50
2022-10-30T17:30:40.244Z,19.45
2022-10-30T17:33:42.920Z,19.37
2022-10-30T17:36:13.279Z,19.33
2022-10-30T17:38:43.008Z,19.27
2022-10-30T17:41:16.845Z,19.23
2022-10-30T17:43:53.497Z,19.17
2022-10-30T17:46:21.846Z,19.12
2022-10-30T17:48:50.746Z,19.07
2022-10-30T17:51:19.944Z,19.02
2022-10-30T17:53:50.316Z,18.99
2022-10-30T17:56:23.102Z,18.93
2022-10-30T17:58:51.596Z,18.89
2022-10-30T18:01:22.716Z,18.84
2022-10-30T18:03:51.785Z,18.78
2022-10-30T18:06:22.650Z,18.73
2022-10-30T18:08:53.286Z,18.68
2022-10-30T18:11:25.153Z,18.63
2022-10-30T18:13:53.993Z,18.57
2022-10-30T18:16:22.377Z,18.52
2022-10-30T18:18:51.028Z,18.47
2022-10-30T18:21:22.213Z,18.42
2022-10-30T18:23:53.453Z,18.37
2022-10-30T18:26:25.288Z,18.33
2022-10-30T18:28:53.902Z,18.27
2022-10-30T18:31:25.055Z,18.23
2022-10-30T18:33:53.398Z,18.19
2022-10-30T18:36:24.039Z,18.14
2022-10-30T18:38:54.586Z,18.10
2022-10-30T18:41:28.244Z,18.05
2022-10-30T18:43:56.589Z,18.02
2022-10-30T18:46:25.491Z,17.97
2022-10-30T18:48:53.743Z,17.92
2022-10-30T18:51:26.204Z,17.87
2022-10-30T18:53:57.129Z,17.84
2022-10-30T18:56:27.713Z,17.79
2022-10-30T18:59:00.522Z,17.75
2022-10-30T19:01:33.212Z,17.70
2022-10-30T19:04:03.800Z,17.64
2022-10-30T19:06:34.438Z,17.60
2022-10-30T19:09:05.195Z,17.55
2022-10-30T19:11:33.617Z,17.51
2022-10-30T19:14:01.941Z,17.48
2022-10-30T19:16:30.357Z,17.44
2022-10-30T19:18:58.615Z,17.40
2022-10-30T19:21:28.092Z,17.36
2022-10-30T19:23:57.093Z,17.33
2022-10-30T19:26:26.758Z,17.29
2022-10-30T19:28:55.056Z,17.26
2022-10-30T19:31:23.273Z,17.21
2022-10-30T19:33:54.592Z,17.18
2022-10-30T19:36:31.885Z,17.12
2022-10-30T19:39:05.738Z,17.09
2022-10-30T19:41:38.851Z,17.04
2022-10-30T19:44:07.424Z,16.99
2022-10-30T19:46:35.961Z,16.96
2022-10-30T19:49:17.110Z,16.91
2022-10-30T19:51:45.388Z,16.89
2022-10-30T19:54:13.698Z,16.87
2022-10-30T19:56:44.083Z,16.84
2022-10-30T19:59:14.944Z,16.80
2022-10-30T20:01:44.539Z,16.77
2022-10-30T20:04:13.530Z,16.73
2022-10-30T20:06:41.805Z,16.70
2022-10-30T20:09:12.079Z,16.67
2022-10-30T20:11:40.343Z,16.64
2022-10-30T20:14:09.965Z,16.60
2022-10-30T20:16:38.217Z,16.58
2022-10-30T20:19:28.255Z,16.52
2022-10-30T20:21:56.776Z,16.50
2022-10-30T20:24:25.550Z,16.47
2022-10-30T20:26:56.822Z,16.43
2022-10-30T20:29:26.650Z,16.40
2022-10-30T20:31:54.914Z,16.36
2022-10-30T20:34:23.153Z,16.35
2022-10-30T20:36:51.425Z,16.31
2022-10-30T20:39:19.707Z,16.27
2022-10-30T20:41:48.073Z,16.25
2022-10-30T20:44:16.322Z,16.20
2022-10-30T20:46:46.274Z,16.16
2022-10-30T20:49:18.241Z,16.14
2022-10-30T20:51:47.633Z,16.11
2022-10-30T20:54:16.153Z,16.07
2022-10-30T20:56:44.396Z,16.03
2022-10-30T20:59:12.707Z,16.00
2022-10-30T21:01:41.126Z,15.98
2022-10-30T21:04:10.887Z,15.94
2022-10-30T21:06:39.140Z,15.91
2022-10-30T21:09:07.444Z,15.87
2022-10-30T21:11:35.798Z,15.85
2022-10-30T21:14:04.083Z,15.84
2022-10-30T21:16:32.300Z,15.79
2022-10-30T21:19:00.516Z,15.78
2022-10-30T21:21:30.162Z,15.74
2022-10-30T21:23:58.440Z,15.70
2022-10-30T21:26:26.666Z,15.68
2022-10-30T21:29:05.798Z,15.58
2022-10-30T21:31:34.225Z,15.62
2022-10-30T21:34:02.525Z,15.58
2022-10-30T21:36:32.127Z,15.54
2022-10-30T21:39:00.524Z,15.52
2022-10-30T21:41:29.012Z,15.49
2022-10-30T21:43:59.109Z,15.46
2022-10-30T21:46:30.091Z,15.41
2022-10-30T21:49:03.272Z,15.38
2022-10-30T21:51:33.198Z,15.38
2022-10-30T21:54:01.480Z,15.35
2022-10-30T21:56:31.367Z,15.34
2022-10-30T21:59:04.566Z,15.32
2022-10-30T22:01:35.742Z,15.30
2022-10-30T22:04:06.565Z,15.28
2022-10-30T22:06:40.560Z,15.26
2022-10-30T22:09:08.970Z,15.23
2022-10-30T22:11:37.434Z,15.20
2022-10-30T22:14:06.700Z,15.21
2022-10-30T22:16:37.209Z,15.17
2022-10-30T22:19:06.827Z,15.17
2022-10-30T22:21:36.418Z,15.15
2022-10-30T22:24:05.892Z,15.13
2022-10-30T22:26:34.188Z,15.10
2022-10-30T22:29:02.606Z,15.07
2022-10-30T22:31:31.963Z,15.05
2022-10-30T22:34:01.762Z,15.05
2022-10-30T22:36:31.922Z,15.01
2022-10-30T22:39:03.942Z,14.98
2022-10-30T22:41:37.701Z,14.96
2022-10-30T22:44:08.914Z,14.94
2022-10-30T22:46:37.912Z,14.91
2022-10-30T22:49:07.320Z,14.89
2022-10-30T22:51:38.027Z,14.86
2022-10-30T22:54:11.197Z,14.84
2022-10-30T22:56:40.776Z,14.82
2022-10-30T22:59:13.005Z,14.80
2022-10-30T23:01:42.427Z,14.78
2022-10-30T23:04:14.040Z,14.75
2022-10-30T23:06:42.669Z,14.74
2022-10-30T23:09:18.880Z,14.71
2022-10-30T23:11:47.147Z,14.68
2022-10-30T23:14:16.344Z,14.65
2022-10-30T23:16:44.593Z,14.62
2022-10-30T23:19:13.034Z,14.59
2022-10-30T23:21:41.292Z,14.57
2022-10-30T23:24:11.067Z,14.55
2022-10-30T23:26:39.296Z,14.52
2022-10-30T23:29:07.470Z,14.53
2022-10-30T23:31:39.004Z,14.50
2022-10-30T23:34:10.150Z,14.48
2022-10-30T23:36:39.039Z,14.45
2022-10-30T23:39:11.902Z,14.44
2022-10-30T23:41:40.251Z,14.43
2022-10-30T23:44:12.749Z,14.40
2022-10-30T23:46:41.476Z,14.39
2022-10-30T23:49:09.905Z,14.38
2022-10-30T23:51:38.203Z,14.36
2022-10-30T23:54:06.736Z,14.34
2022-10-30T23:56:36.406Z,14.32
2022-10-30T23:59:04.866Z,14.28
